Nearby METAR Reports

 

LFRV - Vannes-Meucon, FRANCE
Distance from station: NE 28km
Mise à jour: 18/10/2018 03:30
couvert
couvert
 Wind from NNE
Vent: NNE 17 km/h
Température: 14°C
Point de rosée: 12°C
Humidité: 88%
Baromètre: 1019 hPa
Clouds: couvert
Visibility: 10 km
Cloud details: Peu nuageux 1341 m
nuageux 1951 m
couvert 2377 m
2018/10/18 01:30 LFRV 180130Z AUTO 03009KT 9999 FEW044 BKN064 OVC078 14/12 Q1019
LFRZ - Saint - Nazaire / Montoir, FRANCE
Distance from station: SE 64km
Mise à jour: 18/10/2018 03:30
clair
clair
 Wind from NNE
Vent: NNE 11 km/h
Température: 13°C
Point de rosée: 12°C
Humidité: 94%
Baromètre: 1018 hPa
Résumé: clair
Visibility: greater than 10 km
2018/10/18 01:30 LFRZ 180130Z AUTO 02006KT CAVOK 13/12 Q1018 TEMPO 4000 -SHRA BKN020TCU
 
LFRH - Lorient / Lann- Bihoué, FRANCE
Distance from station: NO 81km
Mise à jour: 18/10/2018 03:30
couvert
couvert
 Wind from NNE
Vent: NNE 15 km/h
Température: 12°C
Point de rosée: 11°C
Humidité: 94%
Baromètre: 1020 hPa
Clouds: couvert
Visibility: 10 km
Cloud details: couvert 1128 m
2018/10/18 01:30 LFRH 180130Z AUTO 02008KT 9999 OVC037 12/11 Q1020 BECMG BKN008 BKN035
LFRB - Brest - Guipavas, FRANCE
Distance from station: NO 200km
Mise à jour: 18/10/2018 03:30
Brume, partiellement nuageux
Brume, partiellement nuageux
 Wind from N
Vent: N 11 km/h
Température: 10°C
Wind Chill: 8°C
Point de rosée: 10°C
Humidité: 100%
Baromètre: 1022 hPa
Résumé: Brume
Clouds: partiellement nuageux
Visibility: 5 km
2018/10/18 01:30 LFRB 180130Z AUTO 01006KT 5000 BR NSC 10/10 Q1022 TEMPO 0500 BCFG BKN002
 
LFPV - Villacoublay - Vélizy/, FRANCE
Distance from station: NE 450km
Mise à jour: 18/10/2018 03:30
partiellement nuageux
partiellement nuageux
 Wind from NNE
Vent: NNE 20 km/h
Température: 14°C
Point de rosée: 11°C
Humidité: 82%
Baromètre: 1020 hPa
Clouds: partiellement nuageux
Visibility: 6 km
2018/10/18 01:30 LFPV 180130Z AUTO 02011KT 350V050 6000 NSC 14/11 Q1020 NOSIG
LFRS - Nantes Atlantique, FRANCE
Distance from station: SE 106km
Mise à jour: 18/10/2018 03:30
clair
clair
 Wind from NNE
Vent: NNE 11 km/h
Température: 14°C
Point de rosée: 13°C
Humidité: 94%
Baromètre: 1018 hPa
Résumé: clair
Visibility: greater than 10 km
2018/10/18 01:30 LFRS 180130Z AUTO 03006KT 360V080 CAVOK 14/13 Q1018 TEMPO 4000 -SHRA BKN020TCU